createdAt,value
2023-05-02T00:00:12.191Z,73.13
2023-05-02T00:01:14.413Z,73.40
2023-05-02T00:02:16.311Z,73.60
2023-05-02T00:03:18.457Z,73.56
2023-05-02T00:04:20.892Z,73.86
2023-05-02T00:05:23.586Z,73.77
2023-05-02T00:06:25.834Z,74.22
2023-05-02T00:07:28.327Z,73.89
2023-05-02T00:08:30.129Z,73.95
2023-05-02T00:09:32.058Z,73.69
2023-05-02T00:10:34.319Z,73.34
2023-05-02T00:11:36.166Z,72.96
2023-05-02T00:12:38.052Z,73.55
2023-05-02T00:13:39.896Z,73.68
2023-05-02T00:14:41.698Z,73.94
2023-05-02T00:15:44.066Z,73.68
2023-05-02T00:16:46.100Z,73.52
2023-05-02T00:17:48.327Z,73.50
2023-05-02T00:18:50.280Z,73.74
2023-05-02T00:19:52.147Z,73.62
2023-05-02T00:20:55.421Z,73.59
2023-05-02T00:21:57.204Z,73.88
2023-05-02T00:22:58.990Z,74.14
2023-05-02T00:24:00.741Z,73.66
2023-05-02T00:25:02.678Z,73.35
2023-05-02T00:26:09.439Z,73.36
2023-05-02T00:27:11.432Z,73.57
2023-05-02T00:28:13.301Z,72.97
2023-05-02T00:29:15.098Z,72.33
2023-05-02T00:30:17.710Z,72.59
2023-05-02T00:31:19.644Z,72.92
2023-05-02T00:32:21.487Z,72.86
2023-05-02T00:33:23.237Z,73.08
2023-05-02T00:34:30.034Z,72.70
2023-05-02T00:35:33.858Z,73.22
2023-05-02T00:36:35.647Z,73.21
2023-05-02T00:37:37.401Z,72.77
2023-05-02T00:38:39.218Z,72.32
2023-05-02T00:39:41.035Z,72.29
2023-05-02T00:40:47.443Z,72.18
2023-05-02T00:41:49.298Z,72.32
2023-05-02T00:42:51.225Z,72.50
2023-05-02T00:43:53.236Z,72.44
2023-05-02T00:44:55.080Z,72.39
2023-05-02T00:45:56.864Z,72.14
2023-05-02T00:47:01.137Z,71.94
2023-05-02T00:48:02.984Z,71.59
2023-05-02T00:49:04.926Z,71.70
2023-05-02T00:50:07.338Z,71.60
2023-05-02T00:51:09.275Z,71.75
2023-05-02T00:52:11.161Z,71.39
2023-05-02T00:53:13.059Z,71.21
2023-05-02T00:54:15.585Z,71.20
2023-05-02T00:55:17.566Z,71.43
2023-05-02T00:56:19.332Z,71.71
2023-05-02T00:57:21.087Z,72.25
2023-05-02T00:58:22.895Z,72.34
2023-05-02T00:59:26.096Z,72.27
2023-05-02T01:01:07.633Z,72.33
2023-05-02T01:02:36.894Z,72.89
2023-05-02T01:03:57.404Z,72.41
2023-05-02T01:05:33.222Z,72.63
2023-05-02T01:06:46.717Z,73.45
2023-05-02T01:08:10.539Z,73.63
2023-05-02T01:09:12.388Z,73.71
2023-05-02T01:10:47.864Z,73.88
2023-05-02T01:12:09.377Z,74.21
2023-05-02T01:13:33.710Z,74.20
2023-05-02T01:14:42.532Z,74.72
2023-05-02T01:15:45.760Z,74.14
2023-05-02T01:16:50.323Z,73.69
2023-05-02T01:19:59.632Z,73.29
2023-05-02T01:21:04.875Z,73.48
2023-05-02T01:22:09.903Z,73.72
2023-05-02T01:23:27.543Z,73.48
2023-05-02T01:24:35.446Z,73.98
2023-05-02T01:25:58.959Z,74.66
2023-05-02T01:27:22.973Z,75.10
2023-05-02T01:29:02.221Z,75.03
2023-05-02T01:30:06.492Z,75.24
2023-05-02T01:31:08.405Z,75.45
2023-05-02T01:32:13.612Z,75.80
2023-05-02T01:33:17.334Z,76.01
2023-05-02T01:34:21.874Z,76.06
2023-05-02T01:35:25.864Z,75.90
2023-05-02T01:36:30.662Z,76.09
2023-05-02T01:37:34.088Z,76.21
2023-05-02T01:38:37.638Z,76.34
2023-05-02T01:39:41.117Z,76.39
2023-05-02T01:40:45.752Z,76.24
2023-05-02T01:41:50.786Z,76.32
2023-05-02T01:42:53.951Z,76.57
2023-05-02T01:44:00.529Z,76.71
2023-05-02T01:45:05.026Z,76.90
2023-05-02T01:46:10.596Z,76.88
2023-05-02T01:47:13.633Z,77.10
2023-05-02T01:48:19.351Z,77.09
2023-05-02T01:49:24.414Z,76.87
2023-05-02T01:50:26.587Z,77.00
2023-05-02T01:51:32.659Z,76.65
2023-05-02T01:52:35.041Z,76.58
2023-05-02T01:53:39.035Z,76.70
2023-05-02T01:54:41.454Z,76.53
2023-05-02T01:55:45.891Z,76.32
2023-05-02T01:56:48.245Z,76.41
2023-05-02T01:57:53.310Z,76.36
2023-05-02T01:58:56.525Z,76.97
2023-05-02T01:59:59.836Z,76.94
2023-05-02T02:01:03.089Z,76.59
2023-05-02T02:02:07.892Z,76.58
2023-05-02T02:03:10.527Z,76.57
2023-05-02T02:04:15.164Z,76.59
2023-05-02T02:05:18.876Z,76.90
2023-05-02T02:06:21.869Z,76.80
2023-05-02T02:07:24.024Z,77.44
2023-05-02T02:08:25.946Z,77.20
2023-05-02T02:09:27.730Z,77.36
2023-05-02T02:10:36.277Z,77.35
2023-05-02T02:11:52.583Z,77.22
2023-05-02T02:13:12.830Z,76.65
2023-05-02T02:14:20.119Z,77.20
2023-05-02T02:15:28.309Z,77.00
2023-05-02T02:16:32.922Z,77.12
2023-05-02T02:17:42.998Z,77.34
2023-05-02T02:18:45.214Z,77.64
2023-05-02T02:19:47.004Z,77.45
2023-05-02T02:20:51.030Z,77.42
2023-05-02T02:21:56.448Z,77.33
2023-05-02T02:23:00.629Z,76.95
2023-05-02T02:24:05.395Z,77.03
2023-05-02T02:25:10.989Z,77.07
2023-05-02T02:26:13.848Z,77.13
2023-05-02T02:27:15.867Z,76.83
2023-05-02T02:28:17.689Z,76.91
2023-05-02T02:29:19.411Z,76.78
2023-05-02T02:30:21.140Z,76.83
2023-05-02T02:31:22.899Z,77.00
2023-05-02T02:32:24.758Z,77.34
2023-05-02T02:33:30.769Z,77.33
2023-05-02T02:34:32.627Z,77.43
2023-05-02T02:35:40.485Z,78.09
2023-05-02T02:36:47.934Z,78.08
2023-05-02T02:38:23.501Z,78.28
2023-05-02T02:40:03.547Z,78.63
2023-05-02T02:41:16.699Z,79.46
2023-05-02T02:42:40.112Z,78.95
2023-05-02T02:44:12.200Z,79.18
2023-05-02T02:45:33.492Z,79.00
2023-05-02T02:47:09.740Z,78.62
2023-05-02T02:48:34.580Z,78.89
2023-05-02T02:49:58.039Z,79.07
2023-05-02T02:51:07.481Z,79.45
2023-05-02T02:52:30.649Z,79.57
2023-05-02T02:54:00.410Z,79.57
2023-05-02T02:55:17.078Z,79.70
2023-05-02T02:56:29.039Z,79.59
2023-05-02T02:57:41.217Z,79.19
2023-05-02T02:58:57.844Z,79.14
2023-05-02T02:59:59.724Z,79.29
2023-05-02T03:01:06.615Z,79.44
2023-05-02T03:02:12.544Z,79.41
2023-05-02T03:03:15.905Z,79.32
2023-05-02T03:04:21.998Z,79.32
2023-05-02T03:05:24.243Z,79.25
2023-05-02T03:06:26.579Z,79.20
2023-05-02T03:07:29.076Z,78.68
2023-05-02T03:08:42.707Z,78.99
2023-05-02T03:09:45.854Z,78.73
2023-05-02T03:10:47.544Z,78.93
2023-05-02T03:11:49.311Z,79.09
2023-05-02T03:12:51.164Z,79.17
2023-05-02T03:13:53.043Z,78.84
2023-05-02T03:15:03.690Z,78.99
2023-05-02T03:16:29.777Z,78.71
2023-05-02T03:17:31.556Z,78.56
2023-05-02T03:18:33.352Z,78.56
2023-05-02T03:19:35.132Z,78.66
2023-05-02T03:20:36.931Z,78.92
2023-05-02T03:21:38.951Z,78.63
2023-05-02T03:22:40.637Z,78.80
2023-05-02T03:23:42.318Z,78.64
2023-05-02T03:24:44.005Z,78.48
2023-05-02T03:25:45.688Z,78.36
2023-05-02T03:26:47.421Z,78.38
2023-05-02T03:27:49.069Z,78.17
2023-05-02T03:28:50.807Z,78.28
2023-05-02T03:29:52.507Z,78.50
2023-05-02T03:30:54.393Z,78.44
2023-05-02T03:31:56.107Z,78.82
2023-05-02T03:32:57.842Z,79.19
2023-05-02T03:33:59.701Z,79.46
2023-05-02T03:35:01.400Z,79.65
2023-05-02T03:36:03.351Z,79.70
2023-05-02T03:37:05.124Z,79.92
2023-05-02T03:38:07.045Z,79.99
2023-05-02T03:39:08.865Z,79.51
2023-05-02T03:40:11.154Z,79.37
2023-05-02T03:41:12.857Z,79.78
2023-05-02T03:42:14.506Z,79.72
2023-05-02T03:43:16.225Z,79.77
2023-05-02T03:44:17.876Z,80.00
2023-05-02T03:45:19.575Z,79.82
2023-05-02T03:46:21.476Z,79.96
2023-05-02T03:47:23.278Z,79.95
2023-05-02T03:48:25.143Z,79.60
2023-05-02T03:49:26.945Z,79.60
2023-05-02T03:50:28.872Z,79.74
2023-05-02T03:51:30.583Z,79.65
2023-05-02T03:52:33.973Z,79.57
2023-05-02T03:53:36.424Z,79.51
2023-05-02T03:54:38.133Z,79.32
2023-05-02T03:55:40.737Z,79.00
2023-05-02T03:56:42.952Z,78.60
2023-05-02T03:57:44.734Z,78.55
2023-05-02T03:58:46.744Z,78.64
2023-05-02T03:59:48.563Z,78.34
2023-05-02T04:00:50.297Z,78.39
2023-05-02T04:01:52.112Z,78.37
2023-05-02T04:02:53.912Z,78.45
2023-05-02T04:03:55.758Z,78.72
2023-05-02T04:04:57.495Z,78.41
2023-05-02T04:05:59.222Z,78.33
2023-05-02T04:07:01.120Z,78.49
2023-05-02T04:08:02.810Z,78.43
2023-05-02T04:09:04.604Z,78.37
2023-05-02T04:10:06.645Z,78.48
2023-05-02T04:11:08.467Z,78.65
2023-05-02T04:12:10.263Z,78.78
2023-05-02T04:13:11.989Z,78.70
2023-05-02T04:14:13.624Z,78.64
2023-05-02T04:15:15.708Z,78.89
2023-05-02T04:16:17.430Z,78.90
2023-05-02T04:17:19.198Z,78.93
2023-05-02T04:18:21.014Z,78.89
2023-05-02T04:19:22.864Z,78.87
2023-05-02T04:20:24.946Z,78.92
2023-05-02T04:21:26.707Z,79.13
2023-05-02T04:22:28.771Z,79.30
2023-05-02T04:23:30.623Z,79.32
2023-05-02T04:24:32.292Z,79.07
2023-05-02T04:25:33.911Z,79.38
2023-05-02T04:26:35.568Z,79.18
2023-05-02T04:27:37.204Z,79.32
2023-05-02T04:28:38.861Z,79.32
2023-05-02T04:29:40.549Z,78.83
2023-05-02T04:30:42.242Z,78.49
2023-05-02T04:31:44.524Z,78.73
2023-05-02T04:32:47.229Z,78.47
2023-05-02T04:33:49.107Z,78.70
2023-05-02T04:34:51.008Z,78.81
2023-05-02T04:35:52.673Z,78.25
2023-05-02T04:36:54.387Z,78.11
2023-05-02T04:37:56.041Z,78.26
2023-05-02T04:38:57.759Z,78.19
2023-05-02T04:39:59.670Z,76.96
2023-05-02T04:41:09.281Z,76.84
2023-05-02T04:42:11.647Z,76.64
2023-05-02T04:43:13.369Z,76.41
2023-05-02T04:44:15.210Z,75.97
2023-05-02T04:45:16.996Z,75.97
2023-05-02T04:46:18.858Z,75.81
2023-05-02T04:47:20.649Z,75.41
2023-05-02T04:48:22.386Z,75.49
2023-05-02T04:49:24.218Z,75.76
2023-05-02T04:50:26.073Z,75.90
2023-05-02T04:51:27.850Z,75.85
2023-05-02T04:52:30.605Z,75.60
2023-05-02T04:53:32.281Z,74.95
2023-05-02T04:54:34.850Z,74.90
2023-05-02T04:55:36.585Z,75.26
2023-05-02T04:56:38.245Z,75.16
2023-05-02T04:57:39.937Z,75.70
2023-05-02T04:58:41.655Z,75.82
2023-05-02T04:59:43.426Z,75.55
2023-05-02T05:00:45.190Z,74.95
2023-05-02T05:01:46.954Z,74.40
2023-05-02T05:02:48.902Z,74.56
2023-05-02T05:03:50.870Z,74.40
2023-05-02T05:04:52.840Z,73.75
2023-05-02T05:05:54.576Z,73.43
2023-05-02T05:06:56.398Z,73.08
2023-05-02T05:07:58.222Z,72.96
2023-05-02T05:08:59.922Z,72.44
2023-05-02T05:10:01.977Z,72.15
2023-05-02T05:11:04.241Z,72.58
2023-05-02T05:12:06.025Z,72.62
2023-05-02T05:13:07.835Z,72.16
2023-05-02T05:14:09.835Z,71.64
2023-05-02T05:15:11.996Z,71.67
2023-05-02T05:16:13.866Z,71.59
2023-05-02T05:17:15.651Z,71.53
2023-05-02T05:18:17.332Z,71.04
2023-05-02T05:19:18.992Z,70.15
2023-05-02T05:20:20.692Z,69.73
2023-05-02T05:21:22.546Z,70.28
2023-05-02T05:22:24.351Z,70.04
2023-05-02T05:23:26.106Z,68.99
2023-05-02T05:24:27.865Z,67.82
2023-05-02T05:25:29.904Z,68.51
2023-05-02T05:26:31.648Z,68.18
2023-05-02T05:27:34.777Z,68.62
2023-05-02T05:28:36.638Z,68.41
2023-05-02T05:29:38.325Z,67.95
2023-05-02T05:30:40.011Z,68.04
2023-05-02T05:31:41.719Z,67.47
2023-05-02T05:32:43.510Z,67.00
2023-05-02T05:33:45.286Z,67.57
2023-05-02T05:34:46.994Z,67.59
2023-05-02T05:35:48.860Z,67.79
2023-05-02T05:36:50.877Z,66.79
2023-05-02T05:37:52.766Z,66.78
2023-05-02T05:38:54.492Z,66.85
2023-05-02T05:39:56.251Z,66.78
2023-05-02T05:40:58.002Z,66.39
2023-05-02T05:41:59.697Z,65.89
2023-05-02T05:43:01.420Z,65.94
2023-05-02T05:44:03.148Z,65.89
2023-05-02T05:45:05.159Z,66.12
2023-05-02T05:46:07.140Z,66.24
2023-05-02T05:47:08.928Z,64.79
2023-05-02T05:48:10.799Z,65.32
2023-05-02T05:49:12.566Z,64.62
2023-05-02T05:50:14.348Z,64.79
2023-05-02T05:51:16.132Z,64.35
2023-05-02T05:52:17.808Z,64.30
2023-05-02T05:53:19.818Z,63.91
2023-05-02T05:54:21.480Z,63.86
2023-05-02T05:55:23.376Z,64.29
2023-05-02T05:56:25.140Z,63.71
2023-05-02T05:57:26.835Z,63.83
2023-05-02T05:58:28.649Z,64.05
2023-05-02T05:59:30.409Z,63.50
2023-05-02T06:00:35.486Z,63.21
2023-05-02T06:01:37.181Z,62.88
2023-05-02T06:02:38.882Z,62.53
2023-05-02T06:03:40.977Z,63.21
2023-05-02T06:04:42.869Z,62.82
2023-05-02T06:05:44.550Z,62.36
2023-05-02T06:06:46.399Z,62.12
2023-05-02T06:07:48.352Z,62.12
2023-05-02T06:08:50.128Z,61.14
2023-05-02T06:09:51.898Z,59.92
2023-05-02T06:10:53.814Z,59.33
2023-05-02T06:11:55.655Z,59.56
2023-05-02T06:12:57.317Z,59.72
2023-05-02T06:13:59.323Z,58.65
2023-05-02T06:15:01.208Z,57.89
2023-05-02T06:16:03.050Z,56.96
2023-05-02T06:17:04.788Z,56.03
2023-05-02T06:18:06.512Z,55.68
2023-05-02T06:19:09.496Z,55.72
2023-05-02T06:20:11.571Z,55.83
2023-05-02T06:21:13.472Z,56.44
2023-05-02T06:22:15.320Z,56.10
2023-05-02T06:23:16.972Z,55.91
2023-05-02T06:24:18.876Z,55.66
2023-05-02T06:25:20.594Z,56.21
2023-05-02T06:26:22.338Z,55.96
2023-05-02T06:27:23.967Z,55.63
2023-05-02T06:28:25.704Z,55.39
2023-05-02T06:29:27.517Z,55.12
2023-05-02T06:30:29.274Z,55.10
2023-05-02T06:31:30.979Z,53.68
2023-05-02T06:32:32.718Z,53.86
2023-05-02T06:33:34.641Z,53.71
2023-05-02T06:34:36.356Z,54.15
2023-05-02T06:35:38.128Z,53.90
2023-05-02T06:36:39.816Z,53.55
2023-05-02T06:37:41.496Z,53.06
2023-05-02T06:38:43.183Z,53.20
2023-05-02T06:39:44.814Z,53.67
2023-05-02T06:40:46.807Z,52.49
2023-05-02T06:41:48.779Z,52.68
2023-05-02T06:42:50.534Z,52.85
2023-05-02T06:43:52.346Z,51.99
2023-05-02T06:44:54.137Z,51.97
2023-05-02T06:45:56.060Z,50.97
2023-05-02T06:46:57.857Z,50.58
2023-05-02T06:47:59.679Z,51.10
2023-05-02T06:49:01.526Z,51.20
2023-05-02T06:50:03.631Z,50.94
2023-05-02T06:51:05.481Z,51.12
2023-05-02T06:52:07.399Z,51.58
2023-05-02T06:53:09.226Z,51.08
2023-05-02T06:54:11.359Z,50.18
2023-05-02T06:55:13.171Z,49.94
2023-05-02T06:56:15.043Z,50.15
2023-05-02T06:57:16.828Z,49.65
2023-05-02T06:58:18.481Z,49.43
2023-05-02T06:59:20.177Z,49.02
2023-05-02T07:00:22.013Z,48.55
2023-05-02T07:01:23.814Z,48.73
2023-05-02T07:02:25.660Z,48.83
2023-05-02T07:03:27.468Z,48.78
2023-05-02T07:04:29.328Z,48.43
2023-05-02T07:05:31.222Z,48.33
2023-05-02T07:06:33.102Z,47.62
2023-05-02T07:07:34.990Z,47.67
2023-05-02T07:08:36.848Z,47.69
2023-05-02T07:09:38.573Z,47.99
2023-05-02T07:10:40.327Z,48.20
2023-05-02T07:11:41.990Z,46.74
2023-05-02T07:12:43.679Z,46.43
2023-05-02T07:13:45.370Z,46.84
2023-05-02T07:14:47.182Z,47.50
2023-05-02T07:15:48.994Z,47.22
2023-05-02T07:16:50.809Z,47.17
2023-05-02T07:17:52.794Z,47.03
2023-05-02T07:18:54.683Z,45.80
2023-05-02T07:19:56.478Z,45.13
2023-05-02T07:20:58.185Z,46.07
2023-05-02T07:21:59.890Z,45.83
2023-05-02T07:23:01.592Z,45.83
2023-05-02T07:24:03.598Z,45.89
2023-05-02T07:25:05.713Z,45.10
2023-05-02T07:26:07.558Z,43.90
2023-05-02T07:27:13.262Z,44.11
2023-05-02T07:28:15.099Z,43.58
2023-05-02T07:29:16.783Z,43.29
2023-05-02T07:30:18.486Z,44.34
2023-05-02T07:31:20.208Z,42.62
2023-05-02T07:32:22.383Z,42.23
2023-05-02T07:33:24.213Z,42.40
2023-05-02T07:34:26.008Z,42.37
2023-05-02T07:35:27.756Z,42.22
2023-05-02T07:36:29.614Z,42.88
2023-05-02T07:37:34.950Z,41.63
2023-05-02T07:38:36.881Z,40.88
2023-05-02T07:39:38.641Z,40.97
2023-05-02T07:40:40.392Z,41.12
2023-05-02T07:41:42.074Z,41.18
2023-05-02T07:42:43.744Z,41.63
2023-05-02T07:43:45.520Z,41.21
2023-05-02T07:44:47.226Z,41.74
2023-05-02T07:45:48.942Z,41.07
2023-05-02T07:46:50.705Z,41.59
2023-05-02T07:47:52.602Z,39.84
2023-05-02T07:48:54.443Z,39.86
2023-05-02T07:49:56.700Z,40.04
2023-05-02T07:51:06.628Z,39.65
2023-05-02T07:52:08.386Z,39.81
2023-05-02T07:53:10.250Z,39.73
2023-05-02T07:54:19.368Z,40.33
2023-05-02T07:55:21.171Z,40.08
2023-05-02T07:56:22.875Z,39.32
2023-05-02T07:57:24.615Z,39.80
2023-05-02T07:58:26.547Z,40.25
2023-05-02T07:59:28.301Z,39.84
2023-05-02T08:00:30.408Z,39.67
2023-05-02T08:01:32.189Z,39.84
2023-05-02T08:02:34.151Z,40.14
2023-05-02T08:03:36.201Z,39.29
2023-05-02T08:04:38.326Z,39.72
2023-05-02T08:05:40.047Z,38.38
2023-05-02T08:06:41.712Z,38.53
2023-05-02T08:07:43.494Z,38.94
2023-05-02T08:08:45.216Z,38.85
2023-05-02T08:09:46.903Z,38.71
2023-05-02T08:10:48.630Z,38.68
2023-05-02T08:11:50.344Z,38.52
2023-05-02T08:12:52.188Z,38.95
2023-05-02T08:13:54.807Z,38.58
2023-05-02T08:14:56.633Z,38.58
2023-05-02T08:15:58.685Z,39.07
2023-05-02T08:17:00.738Z,38.70
2023-05-02T08:18:02.602Z,37.55
2023-05-02T08:19:04.392Z,36.98
2023-05-02T08:20:06.701Z,37.68
2023-05-02T08:21:08.464Z,37.53
2023-05-02T08:22:10.428Z,37.55
2023-05-02T08:23:12.222Z,36.92
2023-05-02T08:24:14.029Z,37.16
2023-05-02T08:25:15.805Z,37.15
2023-05-02T08:26:17.612Z,37.46
2023-05-02T08:27:19.421Z,37.47
2023-05-02T08:28:21.121Z,37.86
2023-05-02T08:29:23.948Z,37.14
2023-05-02T08:30:25.660Z,37.16
2023-05-02T08:31:27.408Z,37.44
2023-05-02T08:32:29.088Z,36.75
2023-05-02T08:33:30.867Z,36.13
2023-05-02T08:34:32.602Z,37.07
2023-05-02T08:35:34.472Z,36.97
2023-05-02T08:36:36.244Z,37.04
2023-05-02T08:37:39.413Z,36.66
2023-05-02T08:38:42.268Z,36.85
2023-05-02T08:39:43.965Z,36.71
2023-05-02T08:40:46.012Z,35.87
2023-05-02T08:41:47.880Z,36.19
2023-05-02T08:42:50.858Z,35.80
2023-05-02T08:43:53.653Z,35.51
2023-05-02T08:44:55.478Z,35.61
2023-05-02T08:46:01.247Z,36.13
2023-05-02T08:47:03.695Z,35.80
2023-05-02T08:48:07.758Z,35.92
2023-05-02T08:49:15.778Z,35.10
2023-05-02T08:50:18.036Z,34.47
2023-05-02T08:52:27.520Z,36.06
2023-05-02T08:53:32.443Z,35.07
2023-05-02T08:54:34.384Z,34.83
2023-05-02T08:55:38.387Z,34.81
2023-05-02T08:56:40.293Z,34.35
2023-05-02T08:57:43.849Z,34.32
2023-05-02T08:58:45.545Z,34.25
2023-05-02T08:59:47.202Z,34.04
2023-05-02T09:00:49.352Z,34.59
2023-05-02T09:01:58.964Z,34.59
2023-05-02T09:03:23.980Z,34.14
2023-05-02T09:04:31.847Z,34.52
2023-05-02T09:05:41.083Z,33.86
2023-05-02T09:06:42.870Z,33.81
2023-05-02T09:07:48.968Z,33.22
2023-05-02T09:08:51.780Z,33.04
2023-05-02T09:09:53.909Z,33.28
2023-05-02T09:10:55.627Z,32.91
2023-05-02T09:11:57.430Z,33.41
2023-05-02T09:13:47.906Z,33.53
2023-05-02T09:15:09.648Z,33.66
2023-05-02T09:16:16.044Z,32.94
2023-05-02T09:17:17.849Z,32.93
2023-05-02T09:18:22.397Z,33.44
2023-05-02T09:19:25.370Z,33.30
2023-05-02T09:20:27.356Z,32.61
2023-05-02T09:21:39.793Z,33.40
2023-05-02T09:22:52.414Z,33.32
2023-05-02T09:23:58.236Z,33.22
2023-05-02T09:25:01.234Z,33.80
2023-05-02T09:26:14.904Z,32.37
2023-05-02T09:27:16.936Z,32.66
2023-05-02T09:28:18.728Z,32.60
2023-05-02T09:29:20.806Z,32.42
2023-05-02T09:30:24.932Z,32.04
2023-05-02T09:31:49.809Z,32.03
2023-05-02T09:32:52.663Z,32.00
2023-05-02T09:33:54.893Z,31.96
2023-05-02T09:35:06.709Z,32.59
2023-05-02T09:36:11.112Z,32.51
2023-05-02T09:37:35.658Z,31.89
2023-05-02T09:38:38.707Z,33.10
2023-05-02T09:39:40.547Z,32.39
2023-05-02T09:40:54.179Z,32.57
2023-05-02T09:41:56.802Z,33.03
2023-05-02T09:42:58.805Z,32.19
2023-05-02T09:44:00.619Z,31.97
2023-05-02T09:45:02.489Z,32.29
2023-05-02T09:46:06.583Z,31.73
2023-05-02T09:47:08.464Z,32.15
2023-05-02T09:48:10.219Z,31.80
2023-05-02T09:49:12.031Z,31.89
2023-05-02T09:50:34.298Z,31.98
2023-05-02T09:51:36.935Z,31.23
2023-05-02T09:52:38.642Z,30.99
2023-05-02T09:53:44.152Z,31.19
2023-05-02T09:54:46.016Z,31.14
2023-05-02T09:55:47.865Z,31.10
2023-05-02T09:56:56.806Z,30.52
2023-05-02T09:57:59.689Z,30.43
2023-05-02T09:59:15.327Z,30.96
2023-05-02T10:00:17.474Z,30.57
2023-05-02T10:01:20.339Z,29.93
2023-05-02T10:02:24.347Z,30.07
2023-05-02T10:03:28.224Z,29.86
2023-05-02T10:04:32.195Z,30.29
2023-05-02T10:05:37.345Z,30.15
2023-05-02T10:06:39.381Z,29.77
2023-05-02T10:07:41.357Z,30.70
2023-05-02T10:08:43.050Z,29.64
2023-05-02T10:09:45.496Z,30.07
2023-05-02T10:10:55.348Z,29.85
2023-05-02T10:11:57.287Z,29.58
2023-05-02T10:12:59.811Z,29.34
2023-05-02T10:14:01.697Z,29.33
2023-05-02T10:15:04.524Z,29.22
2023-05-02T10:16:07.485Z,29.14
2023-05-02T10:17:22.659Z,29.80
2023-05-02T10:18:28.300Z,29.79
2023-05-02T10:19:39.136Z,29.44
2023-05-02T10:20:48.474Z,29.37
2023-05-02T10:21:51.367Z,29.11
2023-05-02T10:22:53.915Z,29.77
2023-05-02T10:23:56.409Z,29.22
2023-05-02T10:24:59.925Z,28.36
2023-05-02T10:26:02.026Z,28.19
2023-05-02T10:27:04.511Z,28.61
2023-05-02T10:28:06.410Z,28.99
2023-05-02T10:29:08.445Z,29.16
2023-05-02T10:30:13.000Z,28.86
2023-05-02T10:31:15.594Z,29.22
2023-05-02T10:32:18.740Z,29.26
2023-05-02T10:33:24.082Z,29.64
2023-05-02T10:34:27.515Z,29.70
2023-05-02T10:35:30.776Z,29.66
2023-05-02T10:36:33.223Z,29.28
2023-05-02T10:37:38.641Z,29.53
2023-05-02T10:38:41.373Z,30.99
2023-05-02T10:39:43.220Z,29.60
2023-05-02T10:41:09.882Z,29.48
2023-05-02T10:42:11.979Z,29.77
2023-05-02T10:43:16.603Z,29.19
2023-05-02T10:44:18.692Z,28.85
2023-05-02T10:45:36.995Z,28.46
2023-05-02T10:46:40.708Z,29.68
2023-05-02T10:47:43.889Z,29.51
2023-05-02T10:49:10.403Z,29.51
2023-05-02T10:50:12.127Z,28.32
2023-05-02T10:51:28.553Z,28.33
2023-05-02T10:52:35.078Z,28.62
2023-05-02T10:53:38.468Z,28.30
2023-05-02T10:54:40.278Z,28.41
2023-05-02T10:55:42.192Z,28.36
2023-05-02T10:57:04.357Z,28.47
2023-05-02T10:58:06.045Z,30.30
2023-05-02T10:59:27.457Z,28.93
2023-05-02T11:00:34.109Z,27.76
2023-05-02T11:01:36.968Z,28.49
2023-05-02T11:02:38.872Z,27.62
2023-05-02T11:04:00.486Z,28.63
2023-05-02T11:05:04.786Z,28.59
2023-05-02T11:06:07.474Z,29.24
2023-05-02T11:07:19.004Z,28.17
2023-05-02T11:08:23.015Z,28.30
2023-05-02T11:09:25.079Z,27.95
2023-05-02T11:10:27.539Z,27.18
2023-05-02T11:11:43.648Z,27.94
2023-05-02T11:12:54.268Z,27.80
2023-05-02T11:13:56.153Z,28.24
2023-05-02T11:14:58.041Z,27.80
2023-05-02T11:16:00.099Z,27.45
2023-05-02T11:17:01.849Z,27.04
2023-05-02T11:18:03.800Z,27.07
2023-05-02T11:19:05.518Z,27.51
2023-05-02T11:20:19.742Z,28.03
2023-05-02T11:21:29.190Z,27.64
2023-05-02T11:22:31.506Z,27.94
2023-05-02T11:23:33.254Z,27.69
2023-05-02T11:24:42.633Z,28.27
2023-05-02T11:25:49.186Z,28.09
2023-05-02T11:26:50.937Z,27.91
2023-05-02T11:27:52.644Z,28.27
2023-05-02T11:28:54.374Z,28.34
2023-05-02T11:29:57.378Z,28.58
2023-05-02T11:30:59.167Z,28.75
2023-05-02T11:32:00.970Z,28.43
2023-05-02T11:33:05.754Z,28.68
2023-05-02T11:34:07.558Z,28.74
2023-05-02T11:35:21.446Z,28.54
2023-05-02T11:36:33.992Z,28.45
2023-05-02T11:37:35.745Z,28.02
2023-05-02T11:38:38.921Z,27.59
2023-05-02T11:39:40.814Z,28.15
2023-05-02T11:40:51.401Z,27.99
2023-05-02T11:41:53.123Z,27.80
2023-05-02T11:42:55.737Z,27.79
2023-05-02T11:44:03.908Z,28.13
2023-05-02T11:45:06.157Z,28.10
2023-05-02T11:46:08.052Z,28.10
2023-05-02T11:47:09.799Z,27.63
2023-05-02T11:48:17.365Z,26.98
2023-05-02T11:49:19.362Z,27.88
2023-05-02T11:50:21.313Z,28.65
2023-05-02T11:51:23.619Z,28.43
2023-05-02T11:52:25.419Z,27.80
2023-05-02T11:53:28.701Z,28.09
2023-05-02T11:54:30.852Z,27.74
2023-05-02T11:55:32.642Z,27.40
2023-05-02T11:56:34.498Z,26.76
2023-05-02T11:57:37.180Z,28.11
2023-05-02T11:58:39.347Z,28.69
2023-05-02T11:59:51.610Z,28.90
2023-05-02T12:00:53.842Z,28.45
2023-05-02T12:01:55.560Z,27.90
2023-05-02T12:02:57.461Z,28.45
2023-05-02T12:04:06.677Z,27.97
2023-05-02T12:05:10.069Z,28.13
2023-05-02T12:06:15.143Z,27.43
2023-05-02T12:07:17.168Z,27.85
2023-05-02T12:08:28.798Z,27.84
2023-05-02T12:09:30.498Z,28.43
2023-05-02T12:10:38.724Z,27.32
2023-05-02T12:11:41.400Z,28.00
2023-05-02T12:12:44.626Z,27.77
2023-05-02T12:13:49.976Z,27.51
2023-05-02T12:14:52.131Z,27.77
2023-05-02T12:15:55.146Z,27.13
2023-05-02T12:16:58.801Z,26.01
2023-05-02T12:18:01.786Z,26.79
2023-05-02T12:19:04.005Z,27.42
2023-05-02T12:20:08.492Z,27.46
2023-05-02T12:21:10.631Z,27.52
2023-05-02T12:22:12.816Z,26.16
2023-05-02T12:23:14.725Z,27.96
2023-05-02T12:24:17.005Z,27.28
2023-05-02T12:25:18.964Z,26.82
2023-05-02T12:26:25.460Z,27.20
2023-05-02T12:27:27.463Z,27.33
2023-05-02T12:28:29.111Z,27.09
2023-05-02T12:29:41.959Z,26.90
2023-05-02T12:30:47.260Z,26.98
2023-05-02T12:31:51.892Z,26.69
2023-05-02T12:32:57.130Z,26.82
2023-05-02T12:33:59.467Z,27.12
2023-05-02T12:35:03.188Z,27.71
2023-05-02T12:36:08.412Z,27.49
2023-05-02T12:37:10.360Z,27.68
2023-05-02T12:38:18.710Z,28.24
2023-05-02T12:39:43.795Z,27.77
2023-05-02T12:40:53.340Z,28.34
2023-05-02T12:41:55.048Z,28.36
2023-05-02T12:43:01.349Z,27.83
2023-05-02T12:44:03.348Z,28.35
2023-05-02T12:45:05.664Z,27.74
2023-05-02T12:46:10.892Z,28.05
2023-05-02T12:47:14.601Z,28.20
2023-05-02T12:48:26.790Z,28.03
2023-05-02T12:49:28.604Z,28.63
2023-05-02T12:50:40.275Z,28.30
2023-05-02T12:51:42.160Z,28.93
2023-05-02T12:52:49.853Z,28.29
2023-05-02T12:53:51.520Z,27.94
2023-05-02T12:54:53.396Z,27.98
2023-05-02T12:56:04.661Z,28.13
2023-05-02T12:57:06.756Z,27.80
2023-05-02T12:58:10.230Z,28.14
2023-05-02T12:59:27.822Z,28.43
2023-05-02T13:00:31.617Z,28.55
2023-05-02T13:01:34.038Z,27.62
2023-05-02T13:02:35.827Z,27.28
2023-05-02T13:03:37.955Z,26.99
2023-05-02T13:04:41.505Z,26.70
2023-05-02T13:05:43.472Z,26.47
2023-05-02T13:06:46.998Z,26.75
2023-05-02T13:07:49.120Z,26.84
2023-05-02T13:08:50.806Z,26.47
2023-05-02T13:09:52.660Z,26.30
2023-05-02T13:10:54.352Z,26.09
2023-05-02T13:11:56.056Z,26.08
2023-05-02T13:12:57.783Z,26.71
2023-05-02T13:13:59.606Z,27.06
2023-05-02T13:15:01.336Z,26.97
2023-05-02T13:16:03.219Z,27.52
2023-05-02T13:17:05.243Z,26.94
2023-05-02T13:18:07.132Z,26.68
2023-05-02T13:19:08.881Z,27.46
2023-05-02T13:20:11.297Z,27.11
2023-05-02T13:21:13.044Z,27.25
2023-05-02T13:22:14.684Z,26.83
2023-05-02T13:23:16.406Z,26.77
2023-05-02T13:24:18.165Z,27.03
2023-05-02T13:25:20.030Z,26.95
2023-05-02T13:26:21.804Z,27.29
2023-05-02T13:27:24.197Z,26.83
2023-05-02T13:28:26.025Z,27.27
2023-05-02T13:29:27.826Z,26.64
2023-05-02T13:30:29.577Z,26.79
2023-05-02T13:31:31.337Z,27.12
2023-05-02T13:32:33.081Z,27.21
2023-05-02T13:33:34.746Z,27.00
2023-05-02T13:34:36.529Z,27.12
2023-05-02T13:35:38.196Z,27.34
2023-05-02T13:36:40.065Z,26.70
2023-05-02T13:37:42.135Z,26.78
2023-05-02T13:38:43.968Z,27.00
2023-05-02T13:39:45.767Z,27.46
2023-05-02T13:40:47.537Z,27.21
2023-05-02T13:41:49.319Z,26.93
2023-05-02T13:42:50.962Z,26.85
2023-05-02T13:43:52.754Z,27.07
2023-05-02T13:44:54.448Z,27.22
2023-05-02T13:45:56.338Z,27.28
2023-05-02T13:46:58.413Z,27.63
2023-05-02T13:48:00.289Z,27.99
2023-05-02T13:49:03.496Z,27.17
2023-05-02T13:50:05.717Z,27.29